Data for 10/14/2009

Time Sea-Level Adjusted Pressure Absolute Pressure Temperature Relative Humidity Dew Point   
(mb) (inHg) (mb) (inHg) (C) (F) (%) (C) (F)
00:05 1008 29.77 837 24.72 -0.8 30.5 80 -3.9 25
00:10 1008 29.77 837 24.72 -1.1 30.1 80 -4 24.8
00:15 1008 29.77 837 24.72 -1.1 30 81 -4 24.9
00:20 1008 29.77 837 24.72 -1.1 30.1 80 -4 24.7
00:25 1008 29.77 837 24.72 -1 30.2 80 -4 24.9
00:30 1008 29.77 837 24.72 -1 30.2 80 -4 24.8
00:35 1008 29.77 837 24.72 -1 30.1 80 -4 24.8
00:40 1008 29.77 837 24.72 -1 30.2 80 -4 24.7
00:45 1008 29.77 837 24.72 -1 30.2 80 -4 24.8
00:50 1008 29.77 837 24.72 -1 30.2 80 -4 24.8
00:55 1008 29.77 837 24.72 -1.1 30 81 -4.1 24.7
01:00 1008 29.77 837 24.72 -1.1 30 81 -4 24.8
01:05 1008 29.77 837 24.72 -1.1 30.1 80 -4 24.8
01:10 1008 29.77 837 24.72 -1.1 30.1 80 -4 24.7
01:15 1007 29.74 837 24.72 -1 30.1 80 -4 24.7
01:20 1007 29.74 837 24.72 -1 30.3 80 -3.9 24.9
01:25 1007 29.74 837 24.72 -0.8 30.5 79 -4 24.8
01:30 1008 29.77 837 24.72 -0.8 30.5 79 -4 24.8
01:35 1008 29.77 837 24.72 -0.8 30.6 79 -3.9 24.9
01:40 1008 29.77 837 24.72 -0.7 30.7 79 -3.9 25.1
01:45 1007 29.74 837 24.72 -0.6 31 78 -3.9 25
01:50 1008 29.77 837 24.72 -0.4 31.2 78 -3.8 25.2
01:55 1007 29.74 837 24.72 -0.1 31.7 76 -3.9 25
02:00 1007 29.74 836 24.69 0.2 32.4 76 -3.6 25.6
02:05 1007 29.74 836 24.69 0.5 32.9 75 -3.5 25.7
02:10 1007 29.74 836 24.69 0.4 32.7 75 -3.4 25.8
02:15 1007 29.74 836 24.69 0.2 32.3 76 -3.5 25.7
02:20 1007 29.74 836 24.69 0.1 32.2 77 -3.5 25.6
02:25 1007 29.74 836 24.69 0.2 32.3 76 -3.6 25.6
02:30 1007 29.74 836 24.69 0.3 32.5 76 -3.5 25.7
02:35 1007 29.74 836 24.69 0.5 32.9 76 -3.3 26
02:40 1007 29.74 837 24.72 0.6 33.1 77 -3 26.5
02:45 1007 29.74 837 24.72 0.6 33.1 77 -2.9 26.8
02:50 1007 29.74 836 24.69 0.5 32.9 78 -3 26.6
02:55 1007 29.74 836 24.69 0.3 32.6 79 -2.8 26.9
03:00 1007 29.74 836 24.69 0 32 81 -2.9 26.8
03:05 1007 29.74 836 24.69 -0.1 31.7 82 -2.9 26.7
03:10 1007 29.74 837 24.72 -0.3 31.5 82 -2.9 26.7
03:15 1007 29.74 836 24.69 -0.3 31.4 83 -2.9 26.7
03:20 1007 29.74 836 24.69 -0.3 31.4 82 -3.1 26.5
03:25 1007 29.74 836 24.69 -0.2 31.6 82 -3 26.7
03:30 1007 29.74 836 24.69 -0.3 31.5 82 -2.9 26.7
03:35 1007 29.74 836 24.69 -0.3 31.5 82 -3 26.6
03:40 1006 29.71 836 24.69 -0.3 31.4 82 -3.1 26.5
03:45 1006 29.71 835 24.66 -0.4 31.3 81 -3.2 26.2
03:50 1006 29.71 835 24.66 -0.4 31.3 81 -3.2 26.2
03:55 1006 29.71 835 24.66 -0.1 31.7 80 -3.2 26.3
04:00 1007 29.74 836 24.69 -0 32 80 -3.1 26.4
04:05 1007 29.74 836 24.69 0.2 32.3 79 -3.1 26.5
04:10 1006 29.71 836 24.69 0.1 32.2 80 -3 26.6
04:15 1006 29.71 836 24.69 0.1 32.2 80 -2.9 26.7
04:20 1006 29.71 836 24.69 0.1 32.2 81 -2.8 27
04:25 1007 29.74 836 24.69 0.2 32.4 81 -2.7 27.1
04:30 1007 29.74 836 24.69 0.1 32.3 81 -2.7 27.2
04:35 1007 29.74 836 24.69 0.1 32.2 82 -2.7 27.2
04:40 1007 29.74 837 24.72 -0.1 31.8 84 -2.5 27.5
04:45 1008 29.77 837 24.72 -0.2 31.7 83 -2.7 27.1
04:50 1008 29.77 837 24.72 -0.2 31.7 85 -2.4 27.7
04:55 1008 29.77 837 24.72 -0.4 31.2 87 -2.4 27.7
05:00 1008 29.77 837 24.72 -0.7 30.7 89 -2.3 27.9
05:05 1007 29.74 837 24.72 -1.1 29.9 91 -2.5 27.5
05:10 1007 29.74 837 24.72 -1.2 29.8 91 -2.6 27.3
05:15 1008 29.77 837 24.72 -1.3 29.7 91 -2.6 27.3
05:20 1007 29.74 837 24.72 -1.3 29.7 90 -2.7 27.1
05:25 1007 29.74 837 24.72 -1.3 29.6 90 -2.7 27.1
05:30 1007 29.74 836 24.69 -1.4 29.4 91 -2.8 27
05:35 1007 29.74 837 24.72 -1.4 29.4 90 -2.9 26.8
05:40 1008 29.77 837 24.72 -1.2 29.8 89 -2.8 27
05:45 1007 29.74 837 24.72 -1 30.2 87 -3 26.7
05:50 1007 29.74 836 24.69 -0.7 30.8 86 -2.8 27
05:55 1007 29.74 837 24.72 -0.5 31.1 85 -2.7 27.1
06:00 1008 29.77 837 24.72 -0.4 31.4 85 -2.6 27.4
06:05 1007 29.74 837 24.72 -0.6 30.9 86 -2.7 27.1
06:10 1008 29.77 837 24.72 -0.6 31 86 -2.6 27.3
06:15 1008 29.77 837 24.72 -0.6 30.9 86 -2.6 27.3
06:20 1008 29.77 837 24.72 -0.5 31.1 86 -2.6 27.3
06:25 1008 29.77 837 24.72 -0.5 31 86 -2.5 27.5
06:30 1008 29.77 837 24.72 -0.6 31 86 -2.6 27.3
06:35 1008 29.77 837 24.72 -0.6 30.9 86 -2.6 27.3
06:40 1008 29.77 837 24.72 -0.8 30.5 88 -2.5 27.5
06:45 1008 29.77 837 24.72 -1 30.3 88 -2.7 27.2
06:50 1008 29.77 837 24.72 -0.9 30.3 88 -2.6 27.3
06:55 1008 29.77 837 24.72 -1 30.2 89 -2.6 27.3
07:00 1008 29.77 837 24.72 -1.1 30 89 -2.7 27.2
07:05 1008 29.77 837 24.72 -1.1 30.1 89 -2.7 27.2
07:10 1008 29.77 837 24.72 -1 30.2 88 -2.7 27.2
07:15 1008 29.77 837 24.72 -0.9 30.4 88 -2.6 27.3
07:20 1008 29.77 837 24.72 -0.9 30.5 87 -2.7 27.2
07:25 1008 29.77 837 24.72 -1 30.3 89 -2.6 27.3
07:30 1008 29.77 837 24.72 -1.2 29.8 90 -2.7 27.1
07:35 1008 29.77 837 24.72 -1.3 29.6 90 -2.8 27
07:40 1008 29.77 837 24.72 -1.4 29.5 90 -2.8 26.9
07:45 1008 29.77 837 24.72 -1.4 29.5 90 -2.8 26.9
07:50 1008 29.77 837 24.72 -1.4 29.5 90 -2.8 26.9
07:55 1008 29.77 837 24.72 -1.2 29.8 89 -2.8 26.9
08:00 1008 29.77 838 24.75 -1.1 30 87 -3 26.7
08:05 1009 29.8 838 24.75 -0.7 30.7 87 -2.6 27.3
08:10 1008 29.77 838 24.75 -0.6 30.9 86 -2.7 27.1
08:15 1009 29.8 838 24.75 -0.5 31.2 85 -2.6 27.3
08:20 1009 29.8 838 24.75 -0.6 30.9 86 -2.6 27.3
08:25 1009 29.8 838 24.75 -0.5 31.2 85 -2.7 27.2
08:30 1009 29.8 838 24.75 -0.5 31.2 85 -2.7 27.1
08:35 1009 29.8 838 24.75 -0.6 31 86 -2.7 27.2
08:40 1009 29.8 838 24.75 -0.6 30.9 86 -2.7 27.2
08:45 1009 29.8 838 24.75 -0.5 31.1 85 -2.7 27.2
08:50 1009 29.8 838 24.75 -0.2 31.6 84 -2.6 27.4
08:55 1009 29.8 838 24.75 0.3 32.6 82 -2.4 27.7
09:00 1009 29.8 838 24.75 0.6 33.1 80 -2.5 27.6
09:05 1009 29.8 839 24.78 0.9 33.7 79 -2.4 27.8
09:10 1009 29.8 839 24.78 1.1 34 79 -2.2 28.1
09:15 1010 29.83 839 24.78 0.9 33.7 79 -2.4 27.8
09:20 1009 29.8 839 24.78 1.6 34.9 74 -2.5 27.5
09:25 1010 29.83 839 24.78 1.9 35.5 74 -2.2 28
09:30 1010 29.83 839 24.78 1.5 34.7 76 -2.3 27.9
09:35 1010 29.83 839 24.78 1.2 34.1 76 -2.6 27.4
09:40 1010 29.83 839 24.78 1.3 34.4 75 -2.7 27.2
09:45 1010 29.83 839 24.78 1.9 35.5 73 -2.4 27.7
09:50 1010 29.83 839 24.78 2.4 36.3 70 -2.5 27.5
09:55 1010 29.83 839 24.78 3 37.4 69 -2.2 28
10:00 1010 29.83 839 24.78 3.7 38.6 66 -2 28.4
10:05 1010 29.83 839 24.78 4.1 39.3 66 -1.7 29
10:10 1010 29.83 839 24.78 4.7 40.4 64 -1.6 29.1
10:15 1010 29.83 839 24.78 5.6 42.1 61 -1.4 29.5
10:20 1010 29.83 839 24.78 6.4 43.5 57 -1.5 29.3
10:25 1010 29.83 839 24.78 6.6 43.9 57 -1.3 29.7
10:30 1010 29.83 839 24.78 7.1 44.8 56 -1.1 30.1
10:35 1010 29.83 839 24.78 7.6 45.7 57 -0.3 31.5
10:40 1010 29.83 839 24.78 7.6 45.7 55 -0.9 30.4
10:45 1010 29.83 839 24.78 8.6 47.5 52 -0.6 31
10:50 1010 29.83 839 24.78 8.1 46.7 54 -0.6 30.9
10:55 1010 29.83 839 24.78 8.6 47.4 52 -0.6 30.9
11:00 1010 29.83 839 24.78 9.3 48.7 51 -0.3 31.5
11:05 1010 29.83 839 24.78 9.2 48.6 52 -0.1 31.8
11:10 1010 29.83 839 24.78 8.9 48 55 0.3 32.5
11:15 1010 29.83 839 24.78 8.7 47.7 54 -0 31.9
11:20 1010 29.83 839 24.78 9.5 49.1 50 -0.3 31.5
11:25 1010 29.83 839 24.78 10.1 50.2 50 0.2 32.3
11:30 1010 29.83 839 24.78 10.6 51 49 0.3 32.6
11:35 1010 29.83 839 24.78 11.3 52.3 45 -0 31.9
11:40 1010 29.83 839 24.78 11.4 52.4 47 0.4 32.7
11:45 1010 29.83 839 24.78 11.9 53.3 45 0.5 32.9
11:50 1010 29.83 840 24.81 12.8 55 43 0.6 33.1
11:55 1010 29.83 840 24.81 13.1 55.5 44 1.2 34.2
12:00 1010 29.83 840 24.81 13.4 56.1 41 0.5 33
12:05 1010 29.83 840 24.81 14 57.3 39 0.3 32.5
12:10 1010 29.83 840 24.81 14.1 57.4 39 0.6 33.1
12:15 1010 29.83 840 24.81 13.9 56.9 39 0.3 32.6
12:20 1010 29.83 840 24.81 14 57.2 39 0.3 32.6
12:25 1010 29.83 840 24.81 14 57.1 40 0.5 32.9
12:30 1010 29.83 840 24.81 14.2 57.5 37 -0.3 31.5
12:35 1010 29.83 840 24.81 14.9 58.8 35 -0.1 31.8
12:40 1010 29.83 840 24.81 14.7 58.4 36 0 32
12:45 1010 29.83 840 24.81 14.5 58.1 37 -0.1 31.8
12:50 1010 29.83 840 24.81 14.2 57.6 37 -0 32
12:55 1011 29.85 840 24.81 14.6 58.3 35 -0.4 31.3
13:00 1011 29.85 840 24.81 14.6 58.3 36 -0.3 31.5
13:05 1011 29.85 840 24.81 15.2 59.4 33 -0.9 30.4
13:10 1011 29.85 840 24.81 15.3 59.5 32 -1.2 29.8
13:15 1011 29.85 840 24.81 14.9 58.8 33 -1.3 29.6
13:20 1011 29.85 840 24.81 15 59.1 33 -1.1 30.1
13:25 1011 29.85 840 24.81 14.7 58.5 34 -1.1 30.1
13:30 1011 29.85 840 24.81 14.5 58.1 33 -1.5 29.4
13:35 1011 29.85 840 24.81 14.4 58 33 -1.4 29.4
13:40 1011 29.85 840 24.81 14.4 57.8 35 -0.9 30.4
13:45 1011 29.85 840 24.81 14.4 57.8 35 -0.8 30.6
13:50 1011 29.85 840 24.81 14 57.3 36 -0.9 30.4
13:55 1011 29.85 840 24.81 13.8 56.8 35 -1.2 29.8
14:00 1011 29.85 840 24.81 13.7 56.6 36 -0.9 30.4
14:05 1011 29.85 840 24.81 13.5 56.2 38 -0.4 31.4
14:10 1011 29.85 840 24.81 13.1 55.5 37 -1 30.1
14:15 1011 29.85 840 24.81 13.3 55.9 37 -1 30.3
14:20 1011 29.85 840 24.81 13.4 56.1 37 -0.9 30.5
14:25 1011 29.85 840 24.81 13.4 56.2 35 -1.6 29.2
14:30 1011 29.85 840 24.81 13.6 56.4 34 -1.9 28.5
14:35 1011 29.85 840 24.81 13.7 56.7 33 -2 28.4
14:40 1011 29.85 840 24.81 13.7 56.7 35 -1.6 29.1
14:45 1011 29.85 840 24.81 13.7 56.6 35 -1.5 29.3
14:50 1011 29.85 840 24.81 13.8 56.9 35 -1.2 29.8
14:55 1011 29.85 840 24.81 13.9 57 35 -1 30.1
15:00 1011 29.85 840 24.81 14 57.3 34 -1.6 29.2
15:05 1011 29.85 840 24.81 14.3 57.7 33 -1.7 29
15:10 1011 29.85 840 24.81 14.5 58.2 33 -1.3 29.7
15:15 1011 29.85 840 24.81 14.4 58 35 -0.8 30.6
15:20 1011 29.85 840 24.81 14.1 57.3 36 -0.8 30.5
15:25 1011 29.85 840 24.81 14.1 57.3 34 -1.3 29.7
15:30 1011 29.85 840 24.81 14.3 57.7 34 -1.1 30
15:35 1011 29.85 840 24.81 14.4 57.9 35 -0.8 30.5
15:40 1011 29.85 840 24.81 14.6 58.2 33 -1.5 29.3
15:45 1011 29.85 840 24.81 14.9 58.9 32 -1.7 29
15:50 1011 29.85 840 24.81 15.7 60.2 32 -1 30.2
15:55 1011 29.85 840 24.81 15.6 60 31 -1.4 29.4
16:00 1011 29.85 840 24.81 16.1 61 29 -1.6 29
16:05 1011 29.85 840 24.81 16.4 61.6 30 -1 30.2
16:10 1011 29.85 840 24.81 16 60.7 31 -0.9 30.4
16:15 1011 29.85 841 24.83 15.4 59.6 33 -0.9 30.4
16:20 1011 29.85 841 24.83 15 58.9 33 -1.3 29.7
16:25 1011 29.85 841 24.83 14.7 58.5 34 -0.8 30.6
16:30 1011 29.85 841 24.83 14.6 58.2 34 -1.1 30
16:35 1012 29.88 841 24.83 14.3 57.7 35 -0.8 30.5
16:40 1012 29.88 841 24.83 14.2 57.5 36 -0.4 31.2
16:45 1012 29.88 841 24.83 14.1 57.4 34 -1.6 29.2
16:50 1012 29.88 841 24.83 14.4 58 35 -1 30.3
16:55 1012 29.88 841 24.83 14.5 58 36 -0.5 31.1
17:00 1012 29.88 841 24.83 14.3 57.7 37 -0.3 31.5
17:05 1012 29.88 841 24.83 13.9 57.1 39 0.1 32.2
17:10 1012 29.88 841 24.83 13.6 56.5 39 0.2 32.3
17:15 1012 29.88 841 24.83 13.5 56.2 40 0.2 32.4
17:20 1012 29.88 841 24.83 13.4 56 41 0.4 32.8
17:25 1012 29.88 841 24.83 13.3 56 41 0.5 33
17:30 1012 29.88 841 24.83 13.3 55.9 43 1 33.9
17:35 1012 29.88 841 24.83 13.2 55.7 43 1 33.8
17:40 1012 29.88 842 24.86 13.1 55.6 43 1 33.8
17:45 1012 29.88 842 24.86 13.2 55.7 43 0.8 33.4
17:50 1012 29.88 842 24.86 13.2 55.8 42 0.8 33.5
17:55 1012 29.88 842 24.86 13.3 55.9 42 0.6 33.1
18:00 1012 29.88 842 24.86 13.6 56.5 42 0.9 33.5
18:05 1013 29.91 842 24.86 13.8 56.8 42 1.1 33.9
18:10 1013 29.91 842 24.86 13.5 56.2 44 1.5 34.6
18:15 1013 29.91 842 24.86 12.9 55.2 47 2.1 35.7
18:20 1013 29.91 842 24.86 12.1 53.8 53 2.9 37.2
18:25 1013 29.91 842 24.86 11.1 52.1 58 3.2 37.7
18:30 1013 29.91 842 24.86 10.6 51 58 2.8 37.1
18:35 1013 29.91 842 24.86 10.3 50.5 60 2.8 37
18:40 1013 29.91 842 24.86 10 50 60 2.7 36.9
18:45 1013 29.91 842 24.86 10 49.9 61 2.7 36.9
18:50 1013 29.91 842 24.86 9.9 49.7 60 2.6 36.7
18:55 1013 29.91 842 24.86 9.8 49.6 62 3 37.4
19:00 1013 29.91 842 24.86 9.6 49.3 62 2.8 37
19:05 1013 29.91 842 24.86 9.7 49.5 62 2.9 37.3
19:10 1013 29.91 842 24.86 9.7 49.4 62 2.9 37.2
19:15 1013 29.91 843 24.89 9.7 49.5 62 2.9 37.2
19:20 1014 29.94 843 24.89 9.5 49.2 63 3 37.3
19:25 1014 29.94 843 24.89 9.4 48.9 63 2.8 37.1
19:30 1014 29.94 843 24.89 9.5 49.1 63 2.9 37.1
19:35 1014 29.94 843 24.89 9.1 48.4 64 2.7 36.9
19:40 1014 29.94 843 24.89 9.1 48.4 63 2.4 36.4
19:45 1014 29.94 844 24.92 9.6 49.2 65 3.2 37.8
19:50 1015 29.97 844 24.92 9.6 49.3 67 3.8 38.8
19:55 1015 29.97 844 24.92 9.8 49.7 58 2.1 35.7
20:00 1015 29.97 844 24.92 10 50.1 62 3 37.5
20:05 1015 29.97 844 24.92 9.9 49.9 66 3.8 38.9
20:10 1015 29.97 844 24.92 9.7 49.4 69 4.2 39.6
20:15 1015 29.97 844 24.92 9.4 48.8 71 4.3 39.7
20:20 1015 29.97 844 24.92 9.2 48.6 70 4.1 39.3
20:25 1015 29.97 845 24.95 9.5 49.1 67 3.6 38.5
20:30 1016 30 845 24.95 9.5 49 69 4.2 39.5
20:35 1016 30 845 24.95 9.2 48.6 68 3.6 38.5
20:40 1016 30 845 24.95 9.1 48.5 67 3.4 38.1
20:45 1016 30 845 24.95 9 48.2 69 3.7 38.6
20:50 1016 30 846 24.98 8.8 47.8 71 3.7 38.7
20:55 1016 30 846 24.98 8.6 47.4 73 4.1 39.4
21:00 1017 30.03 846 24.98 8.3 46.9 77 4.5 40
21:05 1016 30 845 24.95 7.9 46.2 81 4.8 40.6
21:10 1016 30 845 24.95 7.5 45.5 81 4.5 40
21:15 1016 30 845 24.95 7.5 45.4 81 4.4 39.9
21:20 1016 30 846 24.98 7.3 45.2 82 4.5 40.1
21:25 1017 30.03 846 24.98 7.3 45.1 81 4.2 39.5
21:30 1017 30.03 846 24.98 7.3 45.1 78 3.8 38.8
21:35 1017 30.03 846 24.98 7.5 45.6 77 3.8 38.9
21:40 1017 30.03 846 24.98 7.4 45.3 78 3.9 38.9
21:45 1017 30.03 846 24.98 7 44.6 80 3.9 39
21:50 1017 30.03 846 24.98 7 44.5 79 3.7 38.6
21:55 1017 30.03 846 24.98 7 44.7 80 3.8 38.8
22:00 1017 30.03 846 24.98 6.9 44.5 79 3.6 38.5
22:05 1017 30.03 846 24.98 7 44.6 79 3.5 38.4
22:10 1017 30.03 846 24.98 7 44.5 79 3.6 38.4
22:15 1017 30.03 846 24.98 6.9 44.4 78 3.4 38.2
22:20 1017 30.03 846 24.98 7 44.7 76 3 37.4
22:25 1017 30.03 846 24.98 7.4 45.2 75 3.2 37.7
22:30 1017 30.03 846 24.98 7.4 45.3 72 2.8 37
22:35 1017 30.03 846 24.98 7.7 45.9 71 2.7 36.9
22:40 1017 30.03 846 24.98 7.9 46.1 69 2.5 36.5
22:45 1017 30.03 846 24.98 8 46.4 68 2.4 36.4
22:50 1017 30.03 846 24.98 8.1 46.6 67 2.3 36.2
22:55 1017 30.03 846 24.98 8 46.3 68 2.4 36.3
23:00 1017 30.03 846 24.98 7.9 46.2 68 2.4 36.3
23:05 1017 30.03 846 24.98 7.9 46.2 66 2 35.6
23:10 1017 30.03 846 24.98 8 46.4 65 1.7 35.1
23:15 1017 30.03 846 24.98 8.2 46.8 63 1.6 34.9
23:20 1017 30.03 846 24.98 8.5 47.2 62 1.5 34.7
23:25 1017 30.03 846 24.98 8.5 47.3 62 1.8 35.2
23:30 1017 30.03 846 24.98 8.4 47.1 64 1.9 35.5
23:35 1017 30.03 846 24.98 8.2 46.7 64 1.8 35.2
23:40 1017 30.03 847 25.01 8 46.3 66 1.9 35.5
23:45 1017 30.03 847 25.01 7.7 45.9 66 1.8 35.2
23:50 1017 30.03 847 25.01 7.4 45.3 67 1.8 35.2
23:55 1018 30.06 847 25.01 7.2 45 68 1.8 35.2
24:00 1018 30.06 847 25.01 7 44.7 69 1.8 35.3